West Days, Mississippi
Current Conditions -  °F | °C
As of 9:54 AM on Sunday 23 Nov 2014 (Local Time) from KMEM Reporting Station
Light Rain Light Rain  
Wind Chill: 59°   Ceiling: 900
Heat Index: 59°   Visibility: 2mi
Dew Point: 56°   Wind: 8mph
Humidity: 90%   Direction: 130°SE
Pressure: 29.63"   Gusts: NA
Location:  34.9155°N, 90.1878°W
Report Text: KMEM 231554Z 13007KT 2SM -RA BR BKN009 BKN031 OVC090 15/13 A2963 RMK AO2 SFC VIS 6 RAB15 PRESFR SLP032 P0006 T01500133 $
Loading
Personal Weather Stations






























Interactive Weather Map New forecast layout! Learn more

10-Day Weather Forecast

Advertisements
Track Severe Weather on mobile